Sealand Michigan — 9HA3390 — position and weather

sailwx.info

Track history (hours):
 
Tides and Currents Weather Stations Pressure Air Temp Water Temp Dewpoint Dewpoint Depression Visibility Wind Speed Wind Dir Waves Ship Positions

Sealand Michigan

Last reported at 2018-Jul-21 19:29 UTC. Time now 2018-Jul-21 19:32 UTC.
Position N 26°04' W 080°07'.

Length 303 m; draft 12.2 m.

Type: Cargo ship. MMSI: 229538000.

Date/timePositionNaut miles runAvg speedWind from/ knotsBaromVisibWave heightAir tempDewpointWater temp
2018-Jul-21 19:29N 26°04' W 080°07'0 0.2
2018-Jul-21 18:59N 26°04' W 080°07'0 0.2
2018-Jul-21 18:29N 26°04' W 080°07'0 0.0
2018-Jul-21 17:59N 26°04' W 080°07'0 0.2
2018-Jul-21 17:29N 26°04' W 080°07'0 0.2
2018-Jul-21 16:59N 26°04' W 080°07'0 0.0
2018-Jul-21 16:29N 26°04' W 080°07'0 0.0
2018-Jul-21 15:47N 26°04' W 080°07'0 0.3
2018-Jul-21 15:29N 26°04' W 080°07'0 0.2
2018-Jul-21 14:59N 26°04' W 080°07'0 0.2
2018-Jul-21 14:29N 26°04' W 080°07'0 0.2
2018-Jul-21 13:59N 26°04' W 080°07'0 0.2
2018-Jul-21 13:29N 26°04' W 080°07'0 0.2
2018-Jul-21 12:50N 26°04' W 080°07'0 0.0
2018-Jul-21 12:20N 26°04' W 080°07'0 0.0
2018-Jul-21 11:59N 26°04' W 080°07'1 1.9
2018-Jul-21 11:30N 26°05' W 080°07'0 0.8
2018-Jul-21 11:00N 26°06' W 080°07'4 8.0
2018-Jul-21 10:30N 26°06' W 080°02'2 4.9
2018-Jul-21 10:00N 26°05' W 079°60'5 9.2
2018-Jul-21 09:30N 26°07' W 079°55'612.9
2018-Jul-21 09:00N 26°10' W 079°48'815.9
2018-Jul-21 08:30N 26°13' W 079°40'816.8
2018-Jul-21 08:00N 26°16' W 079°31'917.4
2018-Jul-21 07:30N 26°19' W 079°22'2917.7
2018-Jul-21 05:53N 26°28' W 078°52'512.3
2018-Jul-21 05:30N 26°30' W 078°47'2 1.0
2018-Jul-21 03:57N 26°32' W 078°46'  
2018-Jul-15 00:48N 39°42' W 032°24'718.5
2018-Jul-15 00:25N 39°43' W 032°14'717.9
2018-Jul-15 00:00N 39°44' W 032°05'918.2
2018-Jul-14 23:30N 39°45' W 031°53'918.2
2018-Jul-14 23:00N 39°46' W 031°41'918.5
2018-Jul-14 22:30N 39°47' W 031°29'918.7
2018-Jul-14 22:00N 39°48' W 031°17'918.3
2018-Jul-14 21:30N 39°49' W 031°05'918.8
2018-Jul-14 21:00N 39°50' W 030°53'918.4
2018-Jul-14 20:31N 39°51' W 030°41'1018.5
2018-Jul-14 19:59N 39°52' W 030°29'918.4
2018-Jul-14 19:29N 39°52' W 030°17'1118.4
2018-Jul-14 18:53N 39°52' W 030°02'918.5
2018-Jul-14 18:22N 39°53' W 029°50'718.3
2018-Jul-14 18:00N 39°53' W 029°41'918.3
2018-Jul-14 17:30N 39°53' W 029°29'918.3
2018-Jul-14 17:00N 39°53' W 029°17'918.6
2018-Jul-14 16:30N 39°53' W 029°05'918.1
2018-Jul-14 16:00N 39°53' W 028°54'918.6
2018-Jul-14 15:30N 39°53' W 028°41'918.5
2018-Jul-14 15:00N 39°53' W 028°29'918.3
2018-Jul-14 14:30N 39°53' W 028°18'3618.5
2018-Jul-14 12:35N 39°53' W 027°31'118.1
2018-Jul-14 12:30N 39°53' W 027°29'1018.3
2018-Jul-14 11:56N 39°52' W 027°16'818.2
2018-Jul-14 11:29N 39°52' W 027°05'1418.3
2018-Jul-14 10:45N 39°52' W 026°47'1518.5
2018-Jul-14 09:57N 39°51' W 026°28'73517.6
2018-Jul-12 16:15N 38°15' W 010°50'918.0
2018-Jul-12 15:45N 38°13' W 010°39'818.3
2018-Jul-12 15:20N 38°11' W 010°29'618.1
2018-Jul-12 15:00N 38°10' W 010°22'918.1
2018-Jul-12 14:30N 38°08' W 010°10'1017.7
2018-Jul-12 13:57N 38°06' W 009°58'817.7
2018-Jul-12 13:30N 38°04' W 009°48'917.8
2018-Jul-12 13:00N 38°02' W 009°38'917.9
2018-Jul-12 12:30N 38°00' W 009°27'918.1
2018-Jul-12 12:01N 37°58' W 009°16'917.5
2018-Jul-12 11:30N 37°56' W 009°05'816.3
2018-Jul-12 11:00N 37°54' W 008°55'3 7.0
2018-Jul-12 10:30N 37°56' W 008°51'0 0.6
2018-Jul-12 10:00N 37°56' W 008°51'0 0.0
2018-Jul-12 09:30N 37°56' W 008°51'0 0.0
2018-Jul-12 09:00N 37°56' W 008°51'0 0.0
2018-Jul-12 08:30N 37°56' W 008°51'0 0.0
2018-Jul-12 08:00N 37°56' W 008°51'0 0.0
2018-Jul-12 07:30N 37°56' W 008°51'0 0.0
2018-Jul-12 07:00N 37°56' W 008°51'0 0.0
2018-Jul-12 06:27N 37°56' W 008°51'0 0.0
2018-Jul-12 06:00N 37°56' W 008°51'0 0.0
2018-Jul-12 05:30N 37°56' W 008°51'0 0.0
2018-Jul-12 05:00N 37°56' W 008°51'0 0.0
2018-Jul-12 04:30N 37°56' W 008°51'0 0.0
2018-Jul-12 04:00N 37°56' W 008°51'0 0.0
2018-Jul-12 03:30N 37°56' W 008°51'0 0.0
2018-Jul-12 02:57N 37°56' W 008°51'0 0.0
2018-Jul-12 02:30N 37°56' W 008°51'0 0.0
2018-Jul-12 02:00N 37°56' W 008°51'0 0.0
2018-Jul-12 01:30N 37°56' W 008°51'0 0.0
2018-Jul-12 01:00N 37°56' W 008°51'0 0.0
2018-Jul-12 00:30N 37°56' W 008°51'0 0.0
2018-Jul-12 00:00N 37°56' W 008°51'0 0.0
2018-Jul-11 23:30N 37°56' W 008°51'0 0.0
2018-Jul-11 23:00N 37°56' W 008°51'0 0.0
2018-Jul-11 22:30N 37°56' W 008°51'0 0.0
2018-Jul-11 21:57N 37°56' W 008°51'0 0.0
2018-Jul-11 21:30N 37°56' W 008°51'0 0.0
2018-Jul-11 21:00N 37°56' W 008°51'0 0.0
2018-Jul-11 20:30N 37°56' W 008°51'0 0.0
2018-Jul-11 20:00N 37°56' W 008°51'0 0.0
2018-Jul-11 19:30N 37°56' W 008°51'  
Track history (hours):
 
Tides and Currents Weather Stations Pressure Air Temp Water Temp Dewpoint Dewpoint Depression Visibility Wind Speed Wind Dir Waves Ship Positions

Sealand Michigan

Last reported at 2018-Jul-21 19:29 UTC. Time now 2018-Jul-21 19:32 UTC.
Position N 26°04' W 080°07'.

Length 303 m; draft 12.2 m.

Type: Cargo ship. MMSI: 229538000.

Date/timePositionNaut miles runAvg speedWind from/ knotsBaromVisibWave heightAir tempDewpointWater temp
2018-Jul-21 19:29N 26°04' W 080°07'0 0.2
2018-Jul-21 18:59N 26°04' W 080°07'0 0.2
2018-Jul-21 18:29N 26°04' W 080°07'0 0.0
2018-Jul-21 17:59N 26°04' W 080°07'0 0.2
2018-Jul-21 17:29N 26°04' W 080°07'0 0.2
2018-Jul-21 16:59N 26°04' W 080°07'0 0.0
2018-Jul-21 16:29N 26°04' W 080°07'0 0.0
2018-Jul-21 15:47N 26°04' W 080°07'0 0.3
2018-Jul-21 15:29N 26°04' W 080°07'0 0.2
2018-Jul-21 14:59N 26°04' W 080°07'0 0.2
2018-Jul-21 14:29N 26°04' W 080°07'0 0.2
2018-Jul-21 13:59N 26°04' W 080°07'0 0.2
2018-Jul-21 13:29N 26°04' W 080°07'0 0.2
2018-Jul-21 12:50N 26°04' W 080°07'0 0.0
2018-Jul-21 12:20N 26°04' W 080°07'0 0.0
2018-Jul-21 11:59N 26°04' W 080°07'1 1.9
2018-Jul-21 11:30N 26°05' W 080°07'0 0.8
2018-Jul-21 11:00N 26°06' W 080°07'4 8.0
2018-Jul-21 10:30N 26°06' W 080°02'2 4.9
2018-Jul-21 10:00N 26°05' W 079°60'5 9.2
2018-Jul-21 09:30N 26°07' W 079°55'612.9
2018-Jul-21 09:00N 26°10' W 079°48'815.9
2018-Jul-21 08:30N 26°13' W 079°40'816.8
2018-Jul-21 08:00N 26°16' W 079°31'917.4
2018-Jul-21 07:30N 26°19' W 079°22'2917.7
2018-Jul-21 05:53N 26°28' W 078°52'512.3
2018-Jul-21 05:30N 26°30' W 078°47'2 1.0
2018-Jul-21 03:57N 26°32' W 078°46'  
2018-Jul-15 00:48N 39°42' W 032°24'718.5
2018-Jul-15 00:25N 39°43' W 032°14'717.9
2018-Jul-15 00:00N 39°44' W 032°05'918.2
2018-Jul-14 23:30N 39°45' W 031°53'918.2
2018-Jul-14 23:00N 39°46' W 031°41'918.5
2018-Jul-14 22:30N 39°47' W 031°29'918.7
2018-Jul-14 22:00N 39°48' W 031°17'918.3
2018-Jul-14 21:30N 39°49' W 031°05'918.8
2018-Jul-14 21:00N 39°50' W 030°53'918.4
2018-Jul-14 20:31N 39°51' W 030°41'1018.5
2018-Jul-14 19:59N 39°52' W 030°29'918.4
2018-Jul-14 19:29N 39°52' W 030°17'1118.4
2018-Jul-14 18:53N 39°52' W 030°02'918.5
2018-Jul-14 18:22N 39°53' W 029°50'718.3
2018-Jul-14 18:00N 39°53' W 029°41'918.3
2018-Jul-14 17:30N 39°53' W 029°29'918.3
2018-Jul-14 17:00N 39°53' W 029°17'918.6
2018-Jul-14 16:30N 39°53' W 029°05'918.1
2018-Jul-14 16:00N 39°53' W 028°54'918.6
2018-Jul-14 15:30N 39°53' W 028°41'918.5
2018-Jul-14 15:00N 39°53' W 028°29'918.3
2018-Jul-14 14:30N 39°53' W 028°18'3618.5
2018-Jul-14 12:35N 39°53' W 027°31'118.1
2018-Jul-14 12:30N 39°53' W 027°29'1018.3
2018-Jul-14 11:56N 39°52' W 027°16'818.2
2018-Jul-14 11:29N 39°52' W 027°05'1418.3
2018-Jul-14 10:45N 39°52' W 026°47'1518.5
2018-Jul-14 09:57N 39°51' W 026°28'73517.6
2018-Jul-12 16:15N 38°15' W 010°50'918.0
2018-Jul-12 15:45N 38°13' W 010°39'818.3
2018-Jul-12 15:20N 38°11' W 010°29'618.1
2018-Jul-12 15:00N 38°10' W 010°22'918.1
2018-Jul-12 14:30N 38°08' W 010°10'1017.7
2018-Jul-12 13:57N 38°06' W 009°58'817.7
2018-Jul-12 13:30N 38°04' W 009°48'917.8
2018-Jul-12 13:00N 38°02' W 009°38'917.9
2018-Jul-12 12:30N 38°00' W 009°27'918.1
2018-Jul-12 12:01N 37°58' W 009°16'917.5
2018-Jul-12 11:30N 37°56' W 009°05'816.3
2018-Jul-12 11:00N 37°54' W 008°55'3 7.0
2018-Jul-12 10:30N 37°56' W 008°51'0 0.6
2018-Jul-12 10:00N 37°56' W 008°51'0 0.0
2018-Jul-12 09:30N 37°56' W 008°51'0 0.0
2018-Jul-12 09:00N 37°56' W 008°51'0 0.0
2018-Jul-12 08:30N 37°56' W 008°51'0 0.0
2018-Jul-12 08:00N 37°56' W 008°51'0 0.0
2018-Jul-12 07:30N 37°56' W 008°51'0 0.0
2018-Jul-12 07:00N 37°56' W 008°51'0 0.0
2018-Jul-12 06:27N 37°56' W 008°51'0 0.0
2018-Jul-12 06:00N 37°56' W 008°51'0 0.0
2018-Jul-12 05:30N 37°56' W 008°51'0 0.0
2018-Jul-12 05:00N 37°56' W 008°51'0 0.0
2018-Jul-12 04:30N 37°56' W 008°51'0 0.0
2018-Jul-12 04:00N 37°56' W 008°51'0 0.0
2018-Jul-12 03:30N 37°56' W 008°51'0 0.0
2018-Jul-12 02:57N 37°56' W 008°51'0 0.0
2018-Jul-12 02:30N 37°56' W 008°51'0 0.0
2018-Jul-12 02:00N 37°56' W 008°51'0 0.0
2018-Jul-12 01:30N 37°56' W 008°51'0 0.0
2018-Jul-12 01:00N 37°56' W 008°51'0 0.0
2018-Jul-12 00:30N 37°56' W 008°51'0 0.0
2018-Jul-12 00:00N 37°56' W 008°51'0 0.0
2018-Jul-11 23:30N 37°56' W 008°51'0 0.0
2018-Jul-11 23:00N 37°56' W 008°51'0 0.0
2018-Jul-11 22:30N 37°56' W 008°51'0 0.0
2018-Jul-11 21:57N 37°56' W 008°51'0 0.0
2018-Jul-11 21:30N 37°56' W 008°51'0 0.0
2018-Jul-11 21:00N 37°56' W 008°51'0 0.0
2018-Jul-11 20:30N 37°56' W 008°51'0 0.0
2018-Jul-11 20:00N 37°56' W 008°51'0 0.0
2018-Jul-11 19:30N 37°56' W 008°51'  

Dump ship's entire track history